createdAt,value
2022-08-17T00:48:29.223Z,100642.16
2022-08-17T00:51:04.447Z,100636.91
2022-08-17T00:53:36.221Z,100638.06
2022-08-17T00:56:07.994Z,100645.75
2022-08-17T00:58:36.302Z,100634.44
2022-08-17T01:01:05.511Z,100632.84
2022-08-17T01:03:35.617Z,100632.06
2022-08-17T01:06:04.522Z,100638.50
2022-08-17T01:08:32.319Z,100632.84
2022-08-17T01:11:02.221Z,100623.16
2022-08-17T01:13:36.758Z,100620.75
2022-08-17T01:16:13.191Z,100622.75
2022-08-17T01:18:42.163Z,100625.19
2022-08-17T01:21:27.468Z,100618.34
2022-08-17T01:23:55.972Z,100617.13
2022-08-17T01:26:23.712Z,100614.66
2022-08-17T01:28:53.876Z,100623.94
2022-08-17T01:31:23.488Z,100620.75
2022-08-17T01:33:50.379Z,100608.22
2022-08-17T01:36:17.127Z,100620.75
2022-08-17T01:38:43.963Z,100625.19
2022-08-17T01:41:15.621Z,100633.66
2022-08-17T01:43:47.823Z,100631.25
2022-08-17T01:46:17.967Z,100627.63
2022-08-17T01:48:47.586Z,100631.69
2022-08-17T01:51:15.999Z,100633.72
2022-08-17T01:53:47.531Z,100628.88
2022-08-17T01:56:20.041Z,100628.44
2022-08-17T01:58:46.827Z,100626.47
2022-08-17T02:01:14.765Z,100627.66
2022-08-17T02:03:42.309Z,100616.75
2022-08-17T02:06:27.475Z,100615.97
2022-08-17T02:09:03.244Z,100621.63
2022-08-17T02:11:34.403Z,100617.56
2022-08-17T02:14:03.636Z,100620.81
2022-08-17T02:16:37.405Z,100618.78
2022-08-17T02:19:06.653Z,100615.59
2022-08-17T02:21:34.244Z,100630.13
2022-08-17T02:24:01.235Z,100627.69
2022-08-17T02:26:28.191Z,100627.31
2022-08-17T02:28:56.327Z,100627.75
2022-08-17T02:31:23.224Z,100623.31
2022-08-17T02:34:00.488Z,100622.91
2022-08-17T02:36:31.315Z,100619.66
2022-08-17T02:38:58.720Z,100609.16
2022-08-17T02:41:25.612Z,100603.09
2022-08-17T02:43:53.647Z,100609.13
2022-08-17T02:46:22.573Z,100611.16
2022-08-17T02:48:49.566Z,100611.59
2022-08-17T02:51:17.159Z,100617.66
2022-08-17T02:53:43.984Z,100621.72
2022-08-17T02:56:10.761Z,100623.31
2022-08-17T02:58:37.586Z,100634.25
2022-08-17T03:01:05.227Z,100643.97
2022-08-17T03:03:33.987Z,100649.25
2022-08-17T03:06:01.200Z,100656.09
2022-08-17T03:08:28.468Z,100662.97
2022-08-17T03:10:55.321Z,100667.44
2022-08-17T03:13:22.477Z,100662.97
2022-08-17T03:15:49.680Z,100669.44
2022-08-17T03:18:24.793Z,100673.88
2022-08-17T03:20:55.301Z,100670.22
2022-08-17T03:23:23.958Z,100667.41
2022-08-17T03:25:53.801Z,100675.91
2022-08-17T03:28:21.755Z,100694.09
2022-08-17T03:30:48.976Z,100698.94
2022-08-17T03:33:16.890Z,100707.44
2022-08-17T03:35:43.881Z,100712.28
2022-08-17T03:38:15.851Z,100720.34
2022-08-17T03:40:56.464Z,100713.91
2022-08-17T03:43:25.683Z,100713.09
2022-08-17T03:46:28.177Z,100712.69
2022-08-17T03:49:16.542Z,100707.00
2022-08-17T03:52:01.975Z,100702.53
2022-08-17T03:54:48.665Z,100691.22
2022-08-17T03:57:16.342Z,100701.66
2022-08-17T03:59:43.409Z,100692.38
2022-08-17T04:02:17.469Z,100691.16
2022-08-17T04:04:44.699Z,100692.81
2022-08-17T04:07:11.937Z,100702.88
2022-08-17T04:09:40.208Z,100699.25
2022-08-17T04:12:07.308Z,100695.63
2022-08-17T04:14:51.463Z,100691.94
2022-08-17T04:17:22.310Z,100700.06
2022-08-17T04:19:49.088Z,100687.94
2022-08-17T04:22:32.656Z,100676.59
2022-08-17T04:25:09.117Z,100672.97
2022-08-17T04:27:36.192Z,100671.75
2022-08-17T04:30:06.944Z,100668.53
2022-08-17T04:33:04.290Z,100662.06
2022-08-17T04:35:36.916Z,100660.03
2022-08-17T04:38:04.109Z,100657.19
2022-08-17T04:40:51.137Z,100655.53
2022-08-17T04:43:19.678Z,100657.94
2022-08-17T04:45:54.897Z,100658.75
2022-08-17T04:48:27.892Z,100664.00
2022-08-17T04:51:05.468Z,100662.00
2022-08-17T04:53:32.254Z,100676.56
2022-08-17T04:56:00.482Z,100672.88
2022-08-17T04:58:27.339Z,100675.72
2022-08-17T05:00:54.147Z,100676.13
2022-08-17T05:03:20.952Z,100671.34
2022-08-17T05:05:49.778Z,100674.19
2022-08-17T05:08:19.529Z,100672.19
2022-08-17T05:10:47.160Z,100674.22
2022-08-17T05:13:17.053Z,100674.63
2022-08-17T05:15:47.856Z,100680.69
2022-08-17T05:18:17.553Z,100681.91
2022-08-17T05:20:44.840Z,100691.19
2022-08-17T05:23:14.788Z,100686.34
2022-08-17T05:25:47.424Z,100692.00
2022-08-17T05:28:19.646Z,100692.00
2022-08-17T05:30:51.123Z,100685.53
2022-08-17T05:33:21.786Z,100685.53
2022-08-17T05:35:51.136Z,100683.13
2022-08-17T05:38:21.541Z,100686.34
2022-08-17T05:40:48.720Z,100695.25
2022-08-17T05:43:20.626Z,100713.84
2022-08-17T05:45:56.430Z,100717.50
2022-08-17T05:48:35.515Z,100721.16
2022-08-17T05:51:22.550Z,100720.72
2022-08-17T05:53:56.926Z,100724.72
2022-08-17T05:56:35.255Z,100727.19
2022-08-17T05:59:14.523Z,100731.25
2022-08-17T06:01:48.415Z,100728.84
2022-08-17T06:04:26.311Z,100725.59
2022-08-17T06:07:00.045Z,100730.03
2022-08-17T06:09:34.502Z,100734.88
2022-08-17T06:12:20.290Z,100726.00
2022-08-17T06:15:03.775Z,100726.38
2022-08-17T06:17:31.502Z,100730.00
2022-08-17T06:20:03.049Z,100732.06
2022-08-17T06:22:33.355Z,100737.31
2022-08-17T06:25:04.695Z,100738.94
2022-08-17T06:27:41.341Z,100744.22
2022-08-17T06:30:14.232Z,100740.59
2022-08-17T06:32:43.637Z,100748.66
2022-08-17T06:35:13.106Z,100739.75
2022-08-17T06:37:54.033Z,100748.66
2022-08-17T06:40:39.076Z,100749.06
2022-08-17T06:43:20.108Z,100751.50
2022-08-17T06:45:55.601Z,100750.25
2022-08-17T06:48:40.780Z,100751.47
2022-08-17T06:51:17.281Z,100752.72
2022-08-17T06:53:49.901Z,100756.34
2022-08-17T06:56:24.523Z,100742.63
2022-08-17T06:59:17.553Z,100751.50
2022-08-17T07:01:49.422Z,100751.06
2022-08-17T07:04:21.401Z,100742.63
2022-08-17T07:06:52.291Z,100742.56
2022-08-17T07:09:23.623Z,100755.53
2022-08-17T07:11:53.419Z,100750.25
2022-08-17T07:14:37.916Z,100759.16
2022-08-17T07:17:09.092Z,100758.34
2022-08-17T07:39:06.084Z,100795.59
2022-08-17T07:41:53.512Z,100799.31
2022-08-17T07:44:26.630Z,100806.59
2022-08-17T07:47:13.212Z,100798.94
2022-08-17T07:49:46.016Z,100793.25
2022-08-17T07:52:50.987Z,100800.16
2022-08-17T07:55:27.042Z,100798.50
2022-08-17T07:57:56.819Z,100801.78
2022-08-17T08:00:31.723Z,100802.16
2022-08-17T08:03:14.841Z,100797.72
2022-08-17T08:05:52.815Z,100806.19
2022-08-17T08:08:26.754Z,100802.47
2022-08-17T08:11:07.322Z,100802.53
2022-08-17T08:13:35.978Z,100800.53
2022-08-17T08:16:26.444Z,100802.56
2022-08-17T08:18:57.526Z,100816.34
2022-08-17T08:21:36.353Z,100816.34
2022-08-17T08:24:21.899Z,100831.72
2022-08-17T08:26:55.491Z,100838.59
2022-08-17T08:29:29.318Z,100845.03
2022-08-17T08:32:06.338Z,100846.69
2022-08-17T08:35:02.561Z,100851.19
2022-08-17T08:37:43.185Z,100842.69
2022-08-17T08:40:28.458Z,100843.50
2022-08-17T08:43:03.930Z,100834.63
2022-08-17T08:45:38.593Z,100823.69
2022-08-17T08:48:45.949Z,100826.13
2022-08-17T08:51:12.211Z,100818.44
2022-08-17T08:53:49.102Z,100803.47
2022-08-17T08:56:34.424Z,100795.75
2022-08-17T08:59:09.215Z,100795.34
2022-08-17T09:01:46.061Z,100788.09
2022-08-17T09:04:40.699Z,100791.72
2022-08-17T09:07:33.701Z,100794.13
2022-08-17T09:10:09.518Z,100787.28
2022-08-17T09:12:47.679Z,100784.88
2022-08-17T09:15:20.950Z,100780.84
2022-08-17T09:18:14.548Z,100782.91
2022-08-17T09:20:50.227Z,100778.03
2022-08-17T09:23:29.725Z,100777.63
2022-08-17T09:26:02.948Z,100782.47
2022-08-17T09:28:34.707Z,100794.22
2022-08-17T09:31:07.776Z,100782.13
2022-08-17T09:33:40.524Z,100788.16
2022-08-17T09:36:12.911Z,100782.91
2022-08-17T09:38:46.749Z,100795.84
2022-08-17T09:41:20.469Z,100791.81
2022-08-17T09:44:01.039Z,100791.44
2022-08-17T09:46:39.478Z,100795.84
2022-08-17T09:49:15.013Z,100797.47
2022-08-17T09:51:51.540Z,100791.78
2022-08-17T09:54:38.672Z,100793.41
2022-08-17T09:57:31.440Z,100799.06
2022-08-17T10:00:16.727Z,100801.88
2022-08-17T10:03:00.509Z,100805.56
2022-08-17T10:05:39.498Z,100806.31
2022-08-17T10:08:15.707Z,100814.41
2022-08-17T10:10:56.653Z,100821.22
2022-08-17T10:13:35.842Z,100830.56
2022-08-17T10:16:10.847Z,100829.38
2022-08-17T10:18:48.732Z,100839.03
2022-08-17T10:21:36.560Z,100834.25
2022-08-17T10:24:28.516Z,100839.91
2022-08-17T10:27:00.049Z,100837.50
2022-08-17T10:29:47.422Z,100842.00
2022-08-17T10:32:26.333Z,100850.50
2022-08-17T10:35:14.737Z,100857.38
2022-08-17T10:38:10.389Z,100854.94
2022-08-17T10:40:46.806Z,100866.63
2022-08-17T10:43:30.262Z,100860.41
2022-08-17T10:46:10.683Z,100865.22
2022-08-17T10:49:22.929Z,100864.16
2022-08-17T10:56:44.269Z,100858.06
2022-08-17T10:59:47.596Z,100870.53
2022-08-17T11:02:27.176Z,100864.44
2022-08-17T11:05:06.925Z,100868.03
2022-08-17T11:07:49.127Z,100866.72
2022-08-17T11:10:51.981Z,100865.88
2022-08-17T11:13:30.206Z,100862.16
2022-08-17T11:16:08.671Z,100866.66
2022-08-17T11:18:56.954Z,100866.22
2022-08-17T11:25:54.835Z,100848.69
2022-08-17T11:58:19.650Z,100882.56
2022-08-17T12:15:28.625Z,100880.41
2022-08-17T12:19:05.600Z,100877.91
2022-08-17T12:22:07.715Z,100876.75
2022-08-17T12:34:22.103Z,100899.31
2022-08-17T12:36:51.967Z,100909.78
2022-08-17T12:39:25.104Z,100899.59
2022-08-17T12:42:09.548Z,100894.22
2022-08-17T12:44:50.125Z,100896.59
2022-08-17T12:47:22.553Z,100908.31
2022-08-17T12:49:51.941Z,100912.31
2022-08-17T12:52:25.009Z,100900.56
2022-08-17T12:54:55.849Z,100902.22
2022-08-17T12:57:25.581Z,100909.91
2022-08-17T12:59:58.609Z,100907.09
2022-08-17T13:02:42.512Z,100912.31
2022-08-17T13:05:17.809Z,100916.81
2022-08-17T13:07:46.748Z,100912.75
2022-08-17T13:10:19.623Z,100921.25
2022-08-17T13:12:48.011Z,100912.75
2022-08-17T13:15:20.995Z,100904.69
2022-08-17T13:17:58.190Z,100916.78
2022-08-17T13:20:25.146Z,100921.31
2022-08-17T13:22:58.696Z,100904.28
2022-08-17T13:25:26.726Z,100920.94
2022-08-17T13:27:55.414Z,100904.34
2022-08-17T13:30:24.918Z,100909.69
2022-08-17T13:32:53.832Z,100904.91
2022-08-17T13:35:39.941Z,100900.13
2022-08-17T13:38:12.402Z,100892.06
2022-08-17T13:40:42.423Z,100894.16
2022-08-17T13:43:10.263Z,100890.47
2022-08-17T13:46:07.034Z,100883.25
2022-08-17T13:48:34.238Z,100878.38
2022-08-17T13:51:26.365Z,100875.16
2022-08-17T13:53:59.637Z,100875.13
2022-08-17T13:56:38.819Z,100881.66
2022-08-17T13:59:09.844Z,100885.31
2022-08-17T14:01:40.141Z,100878.81
2022-08-17T14:04:09.960Z,100882.88
2022-08-17T14:06:53.454Z,100884.97
2022-08-17T14:09:26.284Z,100886.94
2022-08-17T14:11:54.844Z,100886.13
2022-08-17T14:14:24.107Z,100897.09
2022-08-17T14:16:51.611Z,100894.69
2022-08-17T14:19:19.722Z,100898.34
2022-08-17T14:21:46.785Z,100889.84
2022-08-17T14:24:23.443Z,100891.88
2022-08-17T14:26:54.390Z,100902.41
2022-08-17T14:29:22.539Z,100893.88
2022-08-17T14:31:53.357Z,100905.22
2022-08-17T14:34:22.070Z,100908.91
2022-08-17T14:36:49.029Z,100906.84
2022-08-17T14:39:16.698Z,100914.13
2022-08-17T14:41:45.048Z,100904.41
2022-08-17T14:44:13.108Z,100908.84
2022-08-17T14:46:40.907Z,100905.22
2022-08-17T14:49:07.937Z,100909.16
2022-08-17T14:51:35.217Z,100904.25
2022-08-17T14:54:10.343Z,100917.69
2022-08-17T14:56:38.708Z,100912.81
2022-08-17T14:59:07.079Z,100909.53
2022-08-17T15:01:34.030Z,100917.94
2022-08-17T15:04:01.054Z,100908.03
2022-08-17T15:06:28.003Z,100906.38
2022-08-17T15:08:54.908Z,100914.03
2022-08-17T15:11:21.840Z,100904.75
2022-08-17T15:13:53.107Z,100901.63
2022-08-17T15:16:22.655Z,100904.06
2022-08-17T15:18:50.208Z,100896.31
2022-08-17T15:21:18.176Z,100894.19
2022-08-17T15:23:45.047Z,100893.28
2022-08-17T15:26:12.237Z,100886.25
2022-08-17T15:28:39.075Z,100899.47
2022-08-17T15:31:06.739Z,100892.72
2022-08-17T15:33:34.952Z,100893.97
2022-08-17T15:36:06.485Z,100888.75
2022-08-17T15:38:36.668Z,100904.53
2022-08-17T15:41:03.995Z,100902.53
2022-08-17T15:43:34.161Z,100900.91
2022-08-17T15:46:03.981Z,100898.94
2022-08-17T15:48:41.723Z,100904.97
2022-08-17T15:51:11.466Z,100904.53
2022-08-17T15:53:38.512Z,100906.56
2022-08-17T15:56:06.149Z,100902.47
2022-08-17T15:58:33.585Z,100899.25
2022-08-17T16:01:16.804Z,100893.91
2022-08-17T16:04:04.069Z,100894.38
2022-08-17T16:06:33.675Z,100900.09
2022-08-17T16:09:00.638Z,100908.16
2022-08-17T16:11:27.602Z,100907.31
2022-08-17T16:13:56.028Z,100914.69
2022-08-17T16:16:23.755Z,100919.09
2022-08-17T16:18:53.584Z,100927.34
2022-08-17T16:21:25.913Z,100926.94
2022-08-17T16:23:56.648Z,100926.91
2022-08-17T16:26:23.813Z,100926.56
2022-08-17T16:28:51.639Z,100933.06
2022-08-17T16:35:35.414Z,100945.25
2022-08-17T16:38:08.623Z,100949.69
2022-08-17T16:40:36.425Z,100948.88
2022-08-17T16:43:03.832Z,100953.28
2022-08-17T16:45:40.076Z,100959.81
2022-08-17T16:48:07.626Z,100953.28
2022-08-17T16:50:37.001Z,100953.66
2022-08-17T16:53:07.014Z,100954.09
2022-08-17T16:55:37.344Z,100945.13
2022-08-17T16:58:05.457Z,100937.50
2022-08-17T17:00:33.697Z,100943.16
2022-08-17T17:03:19.595Z,100953.34
2022-08-17T17:05:59.000Z,100956.59
2022-08-17T17:08:30.547Z,100958.63
2022-08-17T17:10:59.863Z,100967.97
2022-08-17T17:13:36.795Z,100965.97
2022-08-17T17:16:17.238Z,100970.03
2022-08-17T17:18:59.037Z,100970.91
2022-08-17T17:21:35.746Z,100959.56
2022-08-17T17:24:07.833Z,100957.53
2022-08-17T17:26:49.985Z,100954.69
2022-08-17T17:29:35.793Z,100947.41
2022-08-17T17:32:21.713Z,100937.22
2022-08-17T17:34:51.897Z,100939.66
2022-08-17T17:45:53.787Z,100898.66
2022-08-17T17:57:31.295Z,100877.97
2022-08-17T21:38:02.837Z,101049.34
2022-08-17T21:40:54.514Z,101046.53
2022-08-17T21:43:55.581Z,101059.81
2022-08-17T21:46:47.911Z,101072.34
2022-08-17T21:49:53.698Z,101078.69
2022-08-17T21:52:29.779Z,101074.44
2022-08-17T21:55:08.448Z,101088.97
2022-08-17T21:57:52.776Z,101088.06
2022-08-17T22:00:43.579Z,101095.69
2022-08-17T22:03:42.756Z,101101.28
2022-08-17T22:06:38.621Z,101103.63
2022-08-17T22:09:36.741Z,101108.97
2022-08-17T22:12:39.558Z,101101.19
2022-08-17T22:15:20.954Z,101104.53
2022-08-17T22:18:06.631Z,101100.25
2022-08-17T22:20:53.829Z,101108.38
2022-08-17T22:23:56.197Z,101114.72
2022-08-17T22:26:48.540Z,101126.00
2022-08-17T22:29:54.414Z,101123.09
2022-08-17T22:32:37.780Z,101120.72
2022-08-17T22:35:26.547Z,101131.56
2022-08-17T22:37:53.487Z,101131.44
2022-08-17T22:40:30.411Z,101125.81
2022-08-17T22:42:58.888Z,101116.09
2022-08-17T22:45:31.140Z,101125.53
2022-08-17T22:48:00.240Z,101125.75
2022-08-17T22:50:29.663Z,101125.28
2022-08-17T22:53:18.007Z,101123.19
2022-08-17T22:56:11.362Z,101118.47
2022-08-17T22:59:02.967Z,101118.09
2022-08-17T23:01:34.794Z,101121.16
2022-08-17T23:04:04.705Z,101106.94
2022-08-17T23:06:35.722Z,101108.50
2022-08-17T23:09:04.444Z,101105.28
2022-08-17T23:11:49.547Z,101105.69
2022-08-17T23:14:19.237Z,101111.59
2022-08-17T23:16:48.691Z,101115.81
2022-08-17T23:19:18.844Z,101105.00
2022-08-17T23:21:46.484Z,101095.28
2022-08-17T23:24:19.913Z,101092.03
2022-08-17T23:26:47.449Z,101101.88
2022-08-17T23:29:14.332Z,101090.16
2022-08-17T23:31:41.470Z,101092.16
2022-08-17T23:34:13.092Z,101081.28
2022-08-17T23:36:40.166Z,101088.81
2022-08-17T23:39:07.713Z,101091.22
2022-08-17T23:41:38.584Z,101087.19
2022-08-17T23:44:06.510Z,101085.19
2022-08-17T23:46:34.499Z,101092.66
2022-08-17T23:49:01.442Z,101095.41
2022-08-17T23:51:34.623Z,101090.97
2022-08-17T23:54:08.107Z,101098.94
2022-08-17T23:56:40.089Z,101089.16
2022-08-17T23:59:06.790Z,101085.59
